Alameda, California
Current Conditions -  °F | °C
As of 9:37 PM on Sunday 21 Dec 2014 (Local Time) from KOAK Reporting Station
Scattered Clouds Scattered Clouds  
Wind Chill: 14°   Ceiling: Unl
Heat Index: 14°   Visibility: 10mi
Dew Point: 13°   Wind: 0mph
Humidity: 94%   Direction: NA
Pressure: 30.29"   Gusts: NA
Location:  37.77°N, 122.24°W
Report Text: KOAK 220537Z 00000KT 10SM SCT010 14/13 A3029 RMK AO2
Loading
Personal Weather Stations






























Interactive Weather Map New forecast layout! Learn more

10-Day Weather Forecast

Advertisements
Track Severe Weather on mobile